Time,TemperatureF,DewpointF,PressureIn,WindDirection,WindDirectionDegrees,WindSpeedMPH,WindSpeedGustMPH,Humidity,HourlyPrecipIn,Conditions,Clouds,dailyrainin,SoftwareType,DateUTC
2013-08-11 00:01:00,69.1,68.2,30.14,West,266,0.0,0.0,97,0.00,,,0.00,Wunderground v.1.13,2013-08-11 04:01:00,
2013-08-11 00:02:00,69.1,68.2,30.14,West,266,0.0,0.0,97,0.00,,,0.00,Wunderground v.1.13,2013-08-11 04:02:00,
2013-08-11 00:04:00,69.1,68.2,30.14,West,266,0.0,0.0,97,0.00,,,0.00,Wunderground v.1.13,2013-08-11 04:04:00,
2013-08-11 00:07:00,69.1,68.2,30.14,West,266,0.0,0.0,97,0.00,,,0.00,Wunderground v.1.13,2013-08-11 04:07:00,
2013-08-11 00:10:00,69.0,68.1,30.13,West,266,0.0,0.0,97,0.00,,,0.00,Wunderground v.1.13,2013-08-11 04:10:00,
2013-08-11 00:16:00,69.0,68.1,30.13,West,266,0.0,0.0,97,0.00,,,0.00,Wunderground v.1.13,2013-08-11 04:16:00,
2013-08-11 00:21:00,69.0,68.1,30.13,West,266,0.0,0.0,97,0.00,,,0.00,Wunderground v.1.13,2013-08-11 04:21:00,
2013-08-11 00:27:00,68.9,68.0,30.13,West,266,0.0,0.0,97,0.00,,,0.00,Wunderground v.1.13,2013-08-11 04:27:00,
2013-08-11 00:33:00,69.0,68.1,30.13,West,266,0.0,0.0,97,0.00,,,0.00,Wunderground v.1.13,2013-08-11 04:33:00,
2013-08-11 00:39:00,69.0,68.1,30.13,West,266,0.0,0.0,97,0.00,,,0.00,Wunderground v.1.13,2013-08-11 04:39:00,
2013-08-11 00:44:00,69.0,68.1,30.13,West,266,0.0,0.0,97,0.00,,,0.00,Wunderground v.1.13,2013-08-11 04:44:00,
2013-08-11 00:50:00,69.0,68.1,30.13,West,266,0.0,0.0,97,0.00,,,0.00,Wunderground v.1.13,2013-08-11 04:50:00,
2013-08-11 00:55:00,68.9,68.0,30.13,West,266,0.0,0.0,97,0.00,,,0.00,Wunderground v.1.13,2013-08-11 04:55:00,
2013-08-11 01:01:00,68.7,67.8,30.13,West,266,0.0,0.0,97,0.00,,,0.01,Wunderground v.1.13,2013-08-11 05:01:00,
2013-08-11 01:07:00,68.6,67.7,30.14,West,266,0.0,0.0,97,0.00,,,0.01,Wunderground v.1.13,2013-08-11 05:07:00,
2013-08-11 01:13:00,68.5,67.6,30.14,West,266,0.0,0.0,97,0.00,,,0.01,Wunderground v.1.13,2013-08-11 05:13:00,
2013-08-11 01:19:00,68.4,67.5,30.14,West,266,0.0,0.0,97,0.00,,,0.01,Wunderground v.1.13,2013-08-11 05:19:00,
2013-08-11 01:24:00,68.4,67.5,30.14,West,266,0.0,0.0,97,0.00,,,0.01,Wunderground v.1.13,2013-08-11 05:24:00,
2013-08-11 01:30:00,68.5,67.9,30.14,West,266,0.0,0.0,98,0.00,,,0.01,Wunderground v.1.13,2013-08-11 05:30:00,
2013-08-11 01:36:00,68.5,67.9,30.14,West,266,0.0,0.0,98,0.00,,,0.01,Wunderground v.1.13,2013-08-11 05:36:00,
2013-08-11 01:42:00,68.6,68.0,30.14,West,266,0.0,0.0,98,0.00,,,0.01,Wunderground v.1.13,2013-08-11 05:42:00,
2013-08-11 01:47:00,68.7,68.1,30.14,West,266,0.0,0.0,98,0.00,,,0.01,Wunderground v.1.13,2013-08-11 05:47:00,
2013-08-11 01:53:00,68.7,68.1,30.14,West,266,0.0,0.0,98,0.00,,,0.01,Wunderground v.1.13,2013-08-11 05:53:00,
2013-08-11 02:00:00,68.8,68.2,30.13,West,266,0.0,0.0,98,0.00,,,0.01,Wunderground v.1.13,2013-08-11 06:00:00,
2013-08-11 02:05:00,68.8,68.2,30.13,West,266,0.0,0.0,98,0.00,,,0.01,Wunderground v.1.13,2013-08-11 06:05:00,
2013-08-11 02:10:00,68.8,68.2,30.13,West,266,0.0,0.0,98,0.00,,,0.01,Wunderground v.1.13,2013-08-11 06:10:00,
2013-08-11 02:16:00,68.8,68.2,30.13,West,266,0.0,0.0,98,0.00,,,0.01,Wunderground v.1.13,2013-08-11 06:16:00,
2013-08-11 02:21:00,68.8,68.2,30.13,West,266,0.0,0.0,98,0.00,,,0.01,Wunderground v.1.13,2013-08-11 06:21:00,
2013-08-11 02:26:00,68.7,68.1,30.13,West,266,0.0,0.0,98,0.00,,,0.01,Wunderground v.1.13,2013-08-11 06:26:00,
2013-08-11 02:32:00,68.8,68.2,30.13,West,266,0.0,0.0,98,0.00,,,0.01,Wunderground v.1.13,2013-08-11 06:32:00,
2013-08-11 02:37:00,68.8,68.2,30.13,West,266,0.0,0.0,98,0.00,,,0.01,Wunderground v.1.13,2013-08-11 06:37:00,
2013-08-11 02:42:00,68.7,68.1,30.13,West,266,0.0,0.0,98,0.00,,,0.01,Wunderground v.1.13,2013-08-11 06:42:00,
2013-08-11 02:48:00,68.6,68.0,30.13,West,266,0.0,0.0,98,0.00,,,0.01,Wunderground v.1.13,2013-08-11 06:48:00,
2013-08-11 02:53:00,68.5,67.9,30.13,West,266,0.0,0.0,98,0.00,,,0.01,Wunderground v.1.13,2013-08-11 06:53:00,
2013-08-11 02:58:00,68.5,67.9,30.13,West,266,0.0,0.0,98,0.00,,,0.01,Wunderground v.1.13,2013-08-11 06:58:00,
2013-08-11 03:04:00,68.4,67.8,30.13,West,266,0.0,0.0,98,0.00,,,0.01,Wunderground v.1.13,2013-08-11 07:04:00,
2013-08-11 03:09:00,68.3,67.7,30.13,West,266,0.0,0.0,98,0.00,,,0.01,Wunderground v.1.13,2013-08-11 07:09:00,
2013-08-11 03:15:00,68.3,67.7,30.13,West,266,0.0,0.0,98,0.00,,,0.01,Wunderground v.1.13,2013-08-11 07:15:00,
2013-08-11 03:21:00,68.2,67.6,30.13,West,266,0.0,0.0,98,0.00,,,0.01,Wunderground v.1.13,2013-08-11 07:21:00,
2013-08-11 03:27:00,68.2,67.6,30.12,West,266,0.0,0.0,98,0.00,,,0.01,Wunderground v.1.13,2013-08-11 07:27:00,
2013-08-11 03:32:00,68.1,67.5,30.13,West,266,0.0,0.0,98,0.00,,,0.01,Wunderground v.1.13,2013-08-11 07:32:00,
2013-08-11 03:37:00,68.0,67.4,30.12,West,266,0.0,0.0,98,0.00,,,0.01,Wunderground v.1.13,2013-08-11 07:37:00,
2013-08-11 03:43:00,68.0,67.4,30.13,West,266,0.0,0.0,98,0.00,,,0.01,Wunderground v.1.13,2013-08-11 07:43:00,
2013-08-11 03:48:00,67.9,67.3,30.12,West,266,0.0,0.0,98,0.00,,,0.01,Wunderground v.1.13,2013-08-11 07:48:00,
2013-08-11 03:53:00,67.9,67.3,30.12,West,266,0.0,0.0,98,0.00,,,0.01,Wunderground v.1.13,2013-08-11 07:53:00,
2013-08-11 03:59:00,67.9,67.3,30.13,West,266,0.0,0.0,98,0.00,,,0.01,Wunderground v.1.13,2013-08-11 07:59:00,
2013-08-11 04:05:00,67.9,67.3,30.13,West,266,0.0,0.0,98,0.00,,,0.01,Wunderground v.1.13,2013-08-11 08:05:00,
2013-08-11 04:11:00,68.0,67.4,30.13,West,266,0.0,0.0,98,0.00,,,0.01,Wunderground v.1.13,2013-08-11 08:11:00,
2013-08-11 04:16:00,68.1,67.8,30.13,West,266,0.0,0.0,99,0.00,,,0.01,Wunderground v.1.13,2013-08-11 08:16:00,
2013-08-11 04:21:00,68.3,67.7,30.13,West,266,0.0,0.0,98,0.00,,,0.01,Wunderground v.1.13,2013-08-11 08:21:00,
2013-08-11 04:27:00,68.3,67.7,30.13,West,266,0.0,0.0,98,0.00,,,0.01,Wunderground v.1.13,2013-08-11 08:27:00,
2013-08-11 04:33:00,68.3,67.7,30.13,West,266,0.0,0.0,98,0.00,,,0.01,Wunderground v.1.13,2013-08-11 08:33:00,
2013-08-11 04:38:00,68.3,67.7,30.13,West,266,0.0,0.0,98,0.00,,,0.01,Wunderground v.1.13,2013-08-11 08:38:00,
2013-08-11 04:43:00,68.3,67.7,30.13,West,266,0.0,0.0,98,0.00,,,0.01,Wunderground v.1.13,2013-08-11 08:43:00,
2013-08-11 04:49:00,68.4,67.8,30.13,West,266,0.0,0.0,98,0.00,,,0.01,Wunderground v.1.13,2013-08-11 08:49:00,
2013-08-11 04:54:00,68.4,67.8,30.14,West,266,0.0,0.0,98,0.00,,,0.01,Wunderground v.1.13,2013-08-11 08:54:00,
2013-08-11 04:59:00,68.4,67.8,30.13,West,266,0.0,0.0,98,0.00,,,0.01,Wunderground v.1.13,2013-08-11 08:59:00,
2013-08-11 05:04:00,68.5,67.9,30.14,West,266,0.0,0.0,98,0.00,,,0.01,Wunderground v.1.13,2013-08-11 09:04:00,
2013-08-11 05:10:00,68.5,68.2,30.14,West,266,0.0,0.0,99,0.00,,,0.01,Wunderground v.1.13,2013-08-11 09:10:00,
2013-08-11 05:16:00,68.6,68.3,30.14,West,266,0.0,0.0,99,0.00,,,0.01,Wunderground v.1.13,2013-08-11 09:16:00,
2013-08-11 05:21:00,68.7,68.4,30.14,West,266,0.0,0.0,99,0.00,,,0.01,Wunderground v.1.13,2013-08-11 09:21:00,
2013-08-11 05:27:00,68.8,68.5,30.14,West,266,0.0,0.0,99,0.00,,,0.01,Wunderground v.1.13,2013-08-11 09:27:00,
2013-08-11 05:33:00,68.8,68.5,30.14,West,266,0.0,0.0,99,0.00,,,0.01,Wunderground v.1.13,2013-08-11 09:33:00,
2013-08-11 05:38:00,68.9,68.6,30.14,West,266,0.0,0.0,99,0.00,,,0.01,Wunderground v.1.13,2013-08-11 09:38:00,
2013-08-11 05:43:00,68.9,68.6,30.14,West,266,0.0,0.0,99,0.00,,,0.01,Wunderground v.1.13,2013-08-11 09:43:00,
2013-08-11 05:49:00,69.0,68.7,30.14,West,266,0.0,0.0,99,0.00,,,0.01,Wunderground v.1.13,2013-08-11 09:49:00,
2013-08-11 05:54:00,69.0,68.7,30.15,West,266,0.0,0.0,99,0.00,,,0.01,Wunderground v.1.13,2013-08-11 09:54:00,
2013-08-11 05:59:00,69.0,68.7,30.15,West,266,0.0,0.0,99,0.00,,,0.01,Wunderground v.1.13,2013-08-11 09:59:00,
2013-08-11 06:05:00,69.1,68.8,30.15,West,266,0.0,0.0,99,0.00,,,0.01,Wunderground v.1.13,2013-08-11 10:05:00,
2013-08-11 06:10:00,69.1,68.8,30.15,West,266,0.0,0.0,99,0.00,,,0.01,Wunderground v.1.13,2013-08-11 10:10:00,
2013-08-11 06:16:00,69.1,68.8,30.15,West,266,0.0,0.0,99,0.00,,,0.01,Wunderground v.1.13,2013-08-11 10:16:00,
2013-08-11 06:21:00,69.2,68.9,30.15,West,266,0.0,0.0,99,0.00,,,0.01,Wunderground v.1.13,2013-08-11 10:21:00,
2013-08-11 06:27:00,69.2,68.9,30.15,West,266,0.0,0.0,99,0.00,,,0.01,Wunderground v.1.13,2013-08-11 10:27:00,
2013-08-11 06:32:00,69.2,68.9,30.15,West,266,0.0,0.0,99,0.00,,,0.01,Wunderground v.1.13,2013-08-11 10:32:00,
2013-08-11 06:38:00,69.2,68.9,30.15,West,266,0.0,0.0,99,0.00,,,0.01,Wunderground v.1.13,2013-08-11 10:38:00,
2013-08-11 06:43:00,69.2,68.9,30.15,West,266,0.0,0.0,99,0.00,,,0.01,Wunderground v.1.13,2013-08-11 10:43:00,
2013-08-11 06:49:00,69.3,69.0,30.15,West,266,0.0,0.0,99,0.00,,,0.01,Wunderground v.1.13,2013-08-11 10:49:00,
2013-08-11 06:54:00,69.3,69.0,30.15,West,266,0.0,0.0,99,0.00,,,0.01,Wunderground v.1.13,2013-08-11 10:54:00,
2013-08-11 06:59:00,69.4,69.1,30.15,West,266,0.0,0.0,99,0.00,,,0.01,Wunderground v.1.13,2013-08-11 10:59:00,
2013-08-11 07:05:00,69.4,69.1,30.15,West,266,0.0,0.0,99,0.00,,,0.01,Wunderground v.1.13,2013-08-11 11:05:00,
2013-08-11 07:10:00,69.4,69.1,30.15,West,266,0.0,0.0,99,0.00,,,0.01,Wunderground v.1.13,2013-08-11 11:10:00,
2013-08-11 07:16:00,69.4,69.1,30.15,West,266,0.0,0.0,99,0.00,,,0.01,Wunderground v.1.13,2013-08-11 11:16:00,
2013-08-11 07:21:00,69.4,69.1,30.16,West,266,0.0,0.0,99,0.00,,,0.01,Wunderground v.1.13,2013-08-11 11:21:00,
2013-08-11 07:26:00,69.5,69.2,30.16,West,266,0.0,0.0,99,0.00,,,0.01,Wunderground v.1.13,2013-08-11 11:26:00,
2013-08-11 07:32:00,69.6,69.3,30.16,West,266,0.0,0.0,99,0.00,,,0.01,Wunderground v.1.13,2013-08-11 11:32:00,
2013-08-11 07:37:00,69.7,69.4,30.16,West,266,0.0,0.0,99,0.00,,,0.01,Wunderground v.1.13,2013-08-11 11:37:00,
2013-08-11 07:42:00,69.7,69.4,30.16,West,266,0.0,0.0,99,0.00,,,0.01,Wunderground v.1.13,2013-08-11 11:42:00,
2013-08-11 07:48:00,69.8,69.5,30.16,West,266,0.0,0.0,99,0.00,,,0.01,Wunderground v.1.13,2013-08-11 11:48:00,
2013-08-11 07:54:00,69.9,69.6,30.17,West,266,0.0,0.0,99,0.00,,,0.01,Wunderground v.1.13,2013-08-11 11:54:00,
2013-08-11 08:00:00,70.0,69.7,30.17,West,266,0.0,0.0,99,0.00,,,0.01,Wunderground v.1.13,2013-08-11 12:00:00,
2013-08-11 08:06:00,70.0,69.7,30.17,West,266,0.0,0.0,99,0.00,,,0.01,Wunderground v.1.13,2013-08-11 12:06:00,
2013-08-11 08:11:00,70.2,69.9,30.17,West,266,0.0,0.0,99,0.00,,,0.01,Wunderground v.1.13,2013-08-11 12:11:00,
2013-08-11 08:17:00,70.6,70.3,30.17,West,266,0.0,0.0,99,0.00,,,0.01,Wunderground v.1.13,2013-08-11 12:17:00,
2013-08-11 08:23:00,70.9,70.6,30.17,West,266,0.0,0.0,99,0.00,,,0.01,Wunderground v.1.13,2013-08-11 12:23:00,
2013-08-11 08:29:00,71.1,70.8,30.17,West,266,0.0,0.0,99,0.00,,,0.01,Wunderground v.1.13,2013-08-11 12:29:00,
2013-08-11 08:34:00,71.3,71.3,30.17,West,267,0.0,0.0,100,0.00,,,0.01,Wunderground v.1.13,2013-08-11 12:34:00,
2013-08-11 08:39:00,71.9,71.9,30.17,West,267,0.0,0.0,100,0.00,,,0.01,Wunderground v.1.13,2013-08-11 12:39:00,
2013-08-11 08:45:00,72.1,71.8,30.17,West,267,0.0,0.0,99,0.00,,,0.01,Wunderground v.1.13,2013-08-11 12:45:00,
2013-08-11 08:51:00,72.3,72.0,30.17,West,267,0.0,0.0,99,0.00,,,0.01,Wunderground v.1.13,2013-08-11 12:51:00,
2013-08-11 08:56:00,72.4,72.1,30.17,West,267,0.0,0.0,99,0.00,,,0.01,Wunderground v.1.13,2013-08-11 12:56:00,
2013-08-11 09:01:00,72.8,72.8,30.17,West,270,0.0,3.0,100,0.00,,,0.01,Wunderground v.1.13,2013-08-11 13:01:00,
2013-08-11 09:07:00,73.1,73.1,30.17,West,267,1.0,3.0,100,0.00,,,0.01,Wunderground v.1.13,2013-08-11 13:07:00,
2013-08-11 09:13:00,72.9,72.6,30.18,West,263,2.0,3.0,99,0.00,,,0.01,Wunderground v.1.13,2013-08-11 13:13:00,
2013-08-11 09:18:00,72.9,72.6,30.17,West,263,3.0,4.0,99,0.00,,,0.01,Wunderground v.1.13,2013-08-11 13:18:00,
2013-08-11 09:24:00,72.7,72.4,30.18,West,263,2.0,4.0,99,0.00,,,0.01,Wunderground v.1.13,2013-08-11 13:24:00,
2013-08-11 09:30:00,72.8,72.5,30.17,West,263,2.0,4.0,99,0.00,,,0.01,Wunderground v.1.13,2013-08-11 13:30:00,
2013-08-11 09:35:00,72.9,72.6,30.17,West,263,3.0,3.0,99,0.00,,,0.01,Wunderground v.1.13,2013-08-11 13:35:00,
2013-08-11 09:41:00,73.2,73.2,30.17,West,263,2.0,3.0,100,0.00,,,0.01,Wunderground v.1.13,2013-08-11 13:41:00,
2013-08-11 09:47:00,73.3,73.0,30.17,WSW,258,2.0,4.0,99,0.00,,,0.01,Wunderground v.1.13,2013-08-11 13:47:00,
2013-08-11 09:52:00,73.4,73.1,30.17,WSW,257,3.0,7.0,99,0.00,,,0.01,Wunderground v.1.13,2013-08-11 13:52:00,
2013-08-11 09:58:00,73.4,73.1,30.17,WSW,249,4.0,5.0,99,0.00,,,0.01,Wunderground v.1.13,2013-08-11 13:58:00,
2013-08-11 10:04:00,73.4,73.1,30.17,WSW,250,5.0,10.0,99,0.00,,,0.01,Wunderground v.1.13,2013-08-11 14:04:00,
2013-08-11 10:09:00,73.5,73.2,30.17,WSW,242,5.0,7.0,99,0.00,,,0.01,Wunderground v.1.13,2013-08-11 14:09:00,
2013-08-11 10:14:00,73.9,73.6,30.17,WSW,242,3.0,4.0,99,0.00,,,0.01,Wunderground v.1.13,2013-08-11 14:14:00,
2013-08-11 10:20:00,74.2,73.9,30.17,West,264,3.0,3.0,99,0.00,,,0.01,Wunderground v.1.13,2013-08-11 14:20:00,
2013-08-11 10:26:00,74.4,73.8,30.17,West,267,3.0,4.0,98,0.00,,,0.01,Wunderground v.1.13,2013-08-11 14:26:00,
2013-08-11 10:31:00,74.8,74.2,30.17,West,271,3.0,6.0,98,0.00,,,0.01,Wunderground v.1.13,2013-08-11 14:31:00,
2013-08-11 10:37:00,75.0,74.4,30.17,West,276,4.0,5.0,98,0.00,,,0.01,Wunderground v.1.13,2013-08-11 14:37:00,
2013-08-11 10:42:00,75.4,74.5,30.17,West,276,4.0,4.0,97,0.00,,,0.01,Wunderground v.1.13,2013-08-11 14:42:00,
2013-08-11 10:48:00,75.6,74.4,30.17,WSW,258,3.0,5.0,96,0.00,,,0.01,Wunderground v.1.13,2013-08-11 14:48:00,
2013-08-11 10:54:00,76.2,75.0,30.17,West,277,4.0,7.0,96,0.00,,,0.01,Wunderground v.1.13,2013-08-11 14:54:00,
2013-08-11 10:59:00,76.7,75.2,30.17,West,269,4.0,6.0,95,0.00,,,0.01,Wunderground v.1.13,2013-08-11 14:59:00,
2013-08-11 11:05:00,77.2,75.3,30.18,West,280,4.0,6.0,94,0.00,,,0.01,Wunderground v.1.13,2013-08-11 15:05:00,
2013-08-11 11:11:00,77.7,74.9,30.18,WNW,286,6.0,7.0,91,0.00,,,0.01,Wunderground v.1.13,2013-08-11 15:11:00,
2013-08-11 11:16:00,78.1,74.6,30.18,WSW,252,6.0,7.0,89,0.00,,,0.01,Wunderground v.1.13,2013-08-11 15:16:00,
2013-08-11 11:21:00,78.3,74.5,30.18,WSW,254,5.0,5.0,88,0.00,,,0.01,Wunderground v.1.13,2013-08-11 15:21:00,
2013-08-11 11:27:00,78.7,74.8,30.18,WNW,284,5.0,5.0,88,0.00,,,0.01,Wunderground v.1.13,2013-08-11 15:27:00,
2013-08-11 11:32:00,78.7,74.5,30.18,West,277,5.0,5.0,87,0.00,,,0.01,Wunderground v.1.13,2013-08-11 15:32:00,
2013-08-11 11:38:00,79.1,74.9,30.17,West,271,4.0,5.0,87,0.00,,,0.01,Wunderground v.1.13,2013-08-11 15:38:00,
2013-08-11 11:43:00,79.3,74.7,30.17,WSW,257,4.0,4.0,86,0.00,,,0.01,Wunderground v.1.13,2013-08-11 15:43:00,
2013-08-11 11:49:00,79.5,74.9,30.17,WSW,257,5.0,9.0,86,0.00,,,0.01,Wunderground v.1.13,2013-08-11 15:49:00,
2013-08-11 11:54:00,80.2,74.9,30.17,West,279,6.0,8.0,84,0.00,,,0.01,Wunderground v.1.13,2013-08-11 15:54:00,
2013-08-11 12:00:00,81.0,76.1,30.16,West,261,6.0,6.0,85,0.00,,,0.01,Wunderground v.1.13,2013-08-11 16:00:00,
2013-08-11 12:05:00,81.8,75.8,30.16,WSW,258,5.0,8.0,82,0.00,,,0.01,Wunderground v.1.13,2013-08-11 16:05:00,
2013-08-11 12:11:00,81.9,75.5,30.16,West,259,5.0,6.0,81,0.00,,,0.01,Wunderground v.1.13,2013-08-11 16:11:00,
2013-08-11 12:16:00,82.3,75.5,30.16,WSW,248,6.0,6.0,80,0.00,,,0.01,Wunderground v.1.13,2013-08-11 16:16:00,
2013-08-11 12:23:00,83.4,75.8,30.16,WNW,284,5.0,7.0,78,0.00,,,0.01,Wunderground v.1.13,2013-08-11 16:23:00,
2013-08-11 12:29:00,82.7,74.8,30.16,SW,236,6.0,7.0,77,0.00,,,0.01,Wunderground v.1.13,2013-08-11 16:29:00,
2013-08-11 12:35:00,82.7,74.8,30.16,SW,230,4.0,9.0,77,0.00,,,0.01,Wunderground v.1.13,2013-08-11 16:35:00,
2013-08-11 12:40:00,82.4,74.8,30.16,West,273,4.0,4.0,78,0.00,,,0.01,Wunderground v.1.13,2013-08-11 16:40:00,
2013-08-11 12:45:00,82.5,74.9,30.16,WNW,292,4.0,4.0,78,0.00,,,0.01,Wunderground v.1.13,2013-08-11 16:45:00,
2013-08-11 12:51:00,82.9,74.9,30.16,West,271,5.0,5.0,77,0.00,,,0.01,Wunderground v.1.13,2013-08-11 16:51:00,
2013-08-11 12:57:00,83.1,75.5,30.15,West,277,4.0,5.0,78,0.00,,,0.01,Wunderground v.1.13,2013-08-11 16:57:00,
2013-08-11 13:02:00,83.9,75.9,30.15,WNW,296,3.0,7.0,77,0.00,,,0.01,Wunderground v.1.13,2013-08-11 17:02:00,
2013-08-11 13:08:00,84.6,75.8,30.15,West,270,4.0,5.0,75,0.00,,,0.01,Wunderground v.1.13,2013-08-11 17:08:00,
2013-08-11 13:13:00,85.1,75.5,30.15,WNW,283,5.0,7.0,73,0.00,,,0.01,Wunderground v.1.13,2013-08-11 17:13:00,
2013-08-11 13:18:00,85.3,75.7,30.15,WNW,296,6.0,8.0,73,0.00,,,0.01,Wunderground v.1.13,2013-08-11 17:18:00,
2013-08-11 13:23:00,85.8,76.5,30.15,WNW,291,6.0,7.0,74,0.00,,,0.01,Wunderground v.1.13,2013-08-11 17:23:00,
2013-08-11 13:29:00,85.9,75.0,30.14,WNW,292,6.0,11.0,70,0.00,,,0.01,Wunderground v.1.13,2013-08-11 17:29:00,
2013-08-11 13:35:00,86.5,76.4,30.14,WNW,286,7.0,7.0,72,0.00,,,0.01,Wunderground v.1.13,2013-08-11 17:35:00,
2013-08-11 13:40:00,86.6,75.2,30.14,WNW,284,6.0,6.0,69,0.00,,,0.01,Wunderground v.1.13,2013-08-11 17:40:00,
2013-08-11 13:45:00,86.3,75.4,30.13,SW,217,5.0,5.0,70,0.00,,,0.01,Wunderground v.1.13,2013-08-11 17:45:00,
2013-08-11 13:51:00,85.8,76.1,30.13,SW,215,3.0,4.0,73,0.00,,,0.01,Wunderground v.1.13,2013-08-11 17:51:00,
2013-08-11 13:56:00,86.2,76.1,30.13,SW,227,2.0,2.0,72,0.00,,,0.01,Wunderground v.1.13,2013-08-11 17:56:00,
2013-08-11 14:01:00,86.2,76.1,30.12,West,281,2.0,3.0,72,0.00,,,0.01,Wunderground v.1.13,2013-08-11 18:01:00,
2013-08-11 14:07:00,86.2,74.8,30.12,WSW,245,4.0,5.0,69,0.00,,,0.01,Wunderground v.1.13,2013-08-11 18:07:00,
2013-08-11 14:13:00,86.7,75.7,30.12,NW,307,4.0,5.0,70,0.00,,,0.01,Wunderground v.1.13,2013-08-11 18:13:00,
2013-08-11 14:18:00,86.8,75.8,30.12,West,275,4.0,6.0,70,0.00,,,0.01,Wunderground v.1.13,2013-08-11 18:18:00,
2013-08-11 14:23:00,87.0,74.7,30.12,West,267,4.0,9.0,67,0.00,,,0.01,Wunderground v.1.13,2013-08-11 18:23:00,
2013-08-11 14:28:00,87.8,75.9,30.11,WNW,292,4.0,6.0,68,0.00,,,0.01,Wunderground v.1.13,2013-08-11 18:28:00,
2013-08-11 14:34:00,88.2,75.4,30.11,WNW,282,5.0,6.0,66,0.00,,,0.01,Wunderground v.1.13,2013-08-11 18:34:00,
2013-08-11 14:39:00,88.0,75.7,30.11,WNW,288,5.0,6.0,67,0.00,,,0.01,Wunderground v.1.13,2013-08-11 18:39:00,
2013-08-11 14:45:00,87.7,75.8,30.11,West,279,4.0,4.0,68,0.00,,,0.01,Wunderground v.1.13,2013-08-11 18:45:00,
2013-08-11 14:50:00,87.4,76.0,30.11,West,281,3.0,5.0,69,0.00,,,0.01,Wunderground v.1.13,2013-08-11 18:50:00,
2013-08-11 14:56:00,87.0,76.0,30.10,WSW,254,3.0,9.0,70,0.00,,,0.01,Wunderground v.1.13,2013-08-11 18:56:00,
2013-08-11 15:01:00,87.0,75.6,30.10,WNW,286,3.0,5.0,69,0.00,,,0.01,Wunderground v.1.13,2013-08-11 19:01:00,
2013-08-11 15:06:00,87.3,75.9,30.10,West,272,4.0,7.0,69,0.00,,,0.01,Wunderground v.1.13,2013-08-11 19:06:00,
2013-08-11 15:12:00,87.4,76.0,30.10,WSW,238,5.0,5.0,69,0.00,,,0.01,Wunderground v.1.13,2013-08-11 19:12:00,
2013-08-11 15:17:00,87.7,75.4,30.10,West,277,5.0,6.0,67,0.00,,,0.01,Wunderground v.1.13,2013-08-11 19:17:00,
2013-08-11 15:22:00,87.8,75.9,30.10,WSW,238,4.0,6.0,68,0.00,,,0.01,Wunderground v.1.13,2013-08-11 19:22:00,
2013-08-11 15:28:00,87.9,76.0,30.10,WNW,296,4.0,6.0,68,0.00,,,0.01,Wunderground v.1.13,2013-08-11 19:28:00,
2013-08-11 15:33:00,88.4,76.5,30.09,West,278,5.0,6.0,68,0.00,,,0.01,Wunderground v.1.13,2013-08-11 19:33:00,
2013-08-11 15:39:00,89.0,76.6,30.09,West,273,4.0,6.0,67,0.00,,,0.01,Wunderground v.1.13,2013-08-11 19:39:00,
2013-08-11 15:45:00,89.4,76.5,30.09,WSW,254,3.0,9.0,66,0.00,,,0.01,Wunderground v.1.13,2013-08-11 19:45:00,
2013-08-11 15:51:00,88.9,76.1,30.09,West,279,4.0,7.0,66,0.00,,,0.01,Wunderground v.1.13,2013-08-11 19:51:00,
2013-08-11 15:57:00,88.3,75.5,30.09,West,259,5.0,6.0,66,0.00,,,0.01,Wunderground v.1.13,2013-08-11 19:57:00,
2013-08-11 16:02:00,87.7,75.4,30.08,WNW,291,5.0,5.0,67,0.00,,,0.01,Wunderground v.1.13,2013-08-11 20:02:00,
2013-08-11 16:07:00,87.2,74.9,30.08,WNW,288,4.0,5.0,67,0.00,,,0.01,Wunderground v.1.13,2013-08-11 20:07:00,
2013-08-11 16:12:00,86.5,76.4,30.09,WNW,293,5.0,10.0,72,0.00,,,0.01,Wunderground v.1.13,2013-08-11 20:12:00,
2013-08-11 16:18:00,83.4,75.4,30.10,WSW,253,10.0,14.0,77,3.43,,,0.22,Wunderground v.1.13,2013-08-11 20:18:00,
2013-08-11 16:23:00,80.7,73.6,30.10,WSW,257,9.0,11.0,79,1.50,,,0.38,Wunderground v.1.13,2013-08-11 20:23:00,
2013-08-11 16:29:00,78.8,72.5,30.09,WSW,257,2.0,6.0,81,0.13,,,0.40,Wunderground v.1.13,2013-08-11 20:29:00,
2013-08-11 16:34:00,78.1,72.9,30.09,WSW,257,0.0,1.0,84,0.06,,,0.40,Wunderground v.1.13,2013-08-11 20:34:00,
2013-08-11 16:39:00,77.6,73.1,30.08,WSW,257,0.0,0.0,86,0.04,,,0.40,Wunderground v.1.13,2013-08-11 20:39:00,
2013-08-11 16:45:00,77.2,73.4,30.09,WSW,257,0.0,0.0,88,0.00,,,0.40,Wunderground v.1.13,2013-08-11 20:45:00,
2013-08-11 16:51:00,76.9,73.4,30.09,WSW,257,0.0,0.0,89,0.00,,,0.40,Wunderground v.1.13,2013-08-11 20:51:00,
2013-08-11 16:56:00,76.7,73.5,30.09,WSW,257,0.0,0.0,90,0.00,,,0.40,Wunderground v.1.13,2013-08-11 20:56:00,
2013-08-11 17:02:00,76.8,74.3,30.09,WSW,257,0.0,0.0,92,0.00,,,0.40,Wunderground v.1.13,2013-08-11 21:02:00,
2013-08-11 17:07:00,76.7,74.2,30.09,WSW,257,0.0,0.0,92,0.00,,,0.40,Wunderground v.1.13,2013-08-11 21:07:00,
2013-08-11 17:13:00,76.4,73.9,30.09,WSW,257,0.0,0.0,92,0.00,,,0.40,Wunderground v.1.13,2013-08-11 21:13:00,
2013-08-11 17:19:00,76.2,73.7,30.10,WSW,257,0.0,4.0,92,0.00,,,0.40,Wunderground v.1.13,2013-08-11 21:19:00,
2013-08-11 17:24:00,76.0,73.5,30.10,West,278,2.0,3.0,92,0.00,,,0.40,Wunderground v.1.13,2013-08-11 21:24:00,
2013-08-11 17:30:00,75.8,73.3,30.10,West,278,2.0,2.0,92,0.00,,,0.40,Wunderground v.1.13,2013-08-11 21:30:00,
2013-08-11 17:35:00,75.3,72.5,30.11,WSW,252,3.0,3.0,91,0.00,,,0.40,Wunderground v.1.13,2013-08-11 21:35:00,
2013-08-11 17:40:00,74.9,72.1,30.10,WSW,257,3.0,3.0,91,0.00,,,0.40,Wunderground v.1.13,2013-08-11 21:40:00,
2013-08-11 17:46:00,74.6,71.8,30.09,South,191,3.0,3.0,91,0.00,,,0.41,Wunderground v.1.13,2013-08-11 21:46:00,
2013-08-11 17:51:00,74.4,71.9,30.09,South,191,2.0,2.0,92,0.00,,,0.41,Wunderground v.1.13,2013-08-11 21:51:00,
2013-08-11 17:56:00,74.3,71.8,30.09,South,191,0.0,0.0,92,0.00,,,0.41,Wunderground v.1.13,2013-08-11 21:56:00,
2013-08-11 18:02:00,74.2,72.0,30.09,South,191,0.0,0.0,93,0.00,,,0.41,Wunderground v.1.13,2013-08-11 22:02:00,
2013-08-11 18:07:00,74.2,72.0,30.09,South,191,0.0,0.0,93,0.00,,,0.41,Wunderground v.1.13,2013-08-11 22:07:00,
2013-08-11 18:12:00,74.2,72.4,30.09,South,191,0.0,0.0,94,0.00,,,0.41,Wunderground v.1.13,2013-08-11 22:12:00,
2013-08-11 18:17:00,74.2,72.4,30.09,South,191,0.0,0.0,94,0.00,,,0.41,Wunderground v.1.13,2013-08-11 22:17:00,
2013-08-11 18:23:00,74.1,72.3,30.10,South,191,0.0,0.0,94,0.00,,,0.41,Wunderground v.1.13,2013-08-11 22:23:00,
2013-08-11 18:28:00,74.0,72.2,30.10,South,191,0.0,1.0,94,0.00,,,0.41,Wunderground v.1.13,2013-08-11 22:28:00,
2013-08-11 18:34:00,73.9,72.1,30.11,South,191,0.0,0.0,94,0.00,,,0.41,Wunderground v.1.13,2013-08-11 22:34:00,
2013-08-11 18:39:00,73.8,72.0,30.11,South,191,0.0,0.0,94,0.00,,,0.41,Wunderground v.1.13,2013-08-11 22:39:00,
2013-08-11 18:46:00,73.7,71.9,30.11,South,191,0.0,0.0,94,0.00,,,0.41,Wunderground v.1.13,2013-08-11 22:46:00,
2013-08-11 18:51:00,73.6,71.8,30.12,South,191,0.0,0.0,94,0.00,,,0.41,Wunderground v.1.13,2013-08-11 22:51:00,
2013-08-11 18:57:00,73.5,72.0,30.12,South,191,0.0,2.0,95,0.00,,,0.41,Wunderground v.1.13,2013-08-11 22:57:00,
2013-08-11 19:03:00,73.4,71.9,30.11,SSW,206,1.0,4.0,95,0.00,,,0.41,Wunderground v.1.13,2013-08-11 23:03:00,
2013-08-11 19:09:00,73.4,71.9,30.11,SSW,206,2.0,3.0,95,0.00,,,0.41,Wunderground v.1.13,2013-08-11 23:09:00,
2013-08-11 19:15:00,73.4,71.9,30.11,SW,220,1.0,4.0,95,0.00,,,0.41,Wunderground v.1.13,2013-08-11 23:15:00,
2013-08-11 19:20:00,73.4,71.9,30.11,SW,220,1.0,1.0,95,0.00,,,0.41,Wunderground v.1.13,2013-08-11 23:20:00,
2013-08-11 19:25:00,73.4,71.9,30.11,SW,220,0.0,0.0,95,0.00,,,0.41,Wunderground v.1.13,2013-08-11 23:25:00,
2013-08-11 19:30:00,73.3,71.8,30.11,SW,220,0.0,0.0,95,0.00,,,0.41,Wunderground v.1.13,2013-08-11 23:30:00,
2013-08-11 19:36:00,73.3,71.8,30.12,SW,220,0.0,0.0,95,0.00,,,0.41,Wunderground v.1.13,2013-08-11 23:36:00,
2013-08-11 19:42:00,73.4,71.9,30.12,SW,220,0.0,0.0,95,0.00,,,0.41,Wunderground v.1.13,2013-08-11 23:42:00,
2013-08-11 19:47:00,73.3,71.8,30.12,SW,220,0.0,0.0,95,0.00,,,0.41,Wunderground v.1.13,2013-08-11 23:47:00,
2013-08-11 19:53:00,73.3,71.8,30.12,SW,220,0.0,0.0,95,0.00,,,0.41,Wunderground v.1.13,2013-08-11 23:53:00,
2013-08-11 19:58:00,73.3,71.8,30.12,SW,220,0.0,0.0,95,0.00,,,0.41,Wunderground v.1.13,2013-08-11 23:58:00,
2013-08-11 20:04:00,73.3,72.1,30.12,SW,220,0.0,0.0,96,0.00,,,0.41,Wunderground v.1.13,2013-08-12 00:04:00,
2013-08-11 20:10:00,73.3,72.1,30.12,SW,220,0.0,0.0,96,0.00,,,0.41,Wunderground v.1.13,2013-08-12 00:10:00,
2013-08-11 20:15:00,73.2,72.0,30.12,SW,220,0.0,0.0,96,0.00,,,0.41,Wunderground v.1.13,2013-08-12 00:15:00,
2013-08-11 20:21:00,73.1,71.9,30.11,SW,220,0.0,0.0,96,0.00,,,0.41,Wunderground v.1.13,2013-08-12 00:21:00,
2013-08-11 20:27:00,73.0,71.8,30.11,SW,220,0.0,0.0,96,0.00,,,0.41,Wunderground v.1.13,2013-08-12 00:27:00,
2013-08-11 20:32:00,73.0,71.8,30.11,SW,220,0.0,0.0,96,0.00,,,0.41,Wunderground v.1.13,2013-08-12 00:32:00,
2013-08-11 20:38:00,72.9,71.7,30.11,SW,220,0.0,0.0,96,0.00,,,0.41,Wunderground v.1.13,2013-08-12 00:38:00,
2013-08-11 20:44:00,72.9,71.7,30.11,SW,220,0.0,0.0,96,0.00,,,0.41,Wunderground v.1.13,2013-08-12 00:44:00,
2013-08-11 20:49:00,72.8,71.6,30.12,SW,220,0.0,0.0,96,0.00,,,0.41,Wunderground v.1.13,2013-08-12 00:49:00,
2013-08-11 20:54:00,72.7,71.5,30.11,SW,220,0.0,0.0,96,0.00,,,0.41,Wunderground v.1.13,2013-08-12 00:54:00,
2013-08-11 21:00:00,72.6,71.4,30.12,SW,220,0.0,0.0,96,0.00,,,0.41,Wunderground v.1.13,2013-08-12 01:00:00,
2013-08-11 21:05:00,72.5,71.3,30.12,SW,220,0.0,0.0,96,0.00,,,0.41,Wunderground v.1.13,2013-08-12 01:05:00,
2013-08-11 21:10:00,72.4,71.2,30.12,SW,220,0.0,0.0,96,0.00,,,0.41,Wunderground v.1.13,2013-08-12 01:10:00,
2013-08-11 21:16:00,72.3,71.1,30.11,SW,220,0.0,0.0,96,0.00,,,0.41,Wunderground v.1.13,2013-08-12 01:16:00,
2013-08-11 21:22:00,72.2,71.0,30.12,SW,220,0.0,0.0,96,0.00,,,0.41,Wunderground v.1.13,2013-08-12 01:22:00,
2013-08-11 21:28:00,72.1,70.9,30.12,SW,220,0.0,0.0,96,0.00,,,0.41,Wunderground v.1.13,2013-08-12 01:28:00,
2013-08-11 21:34:00,72.1,70.9,30.12,SW,220,0.0,0.0,96,0.00,,,0.41,Wunderground v.1.13,2013-08-12 01:34:00,
2013-08-11 21:39:00,72.0,70.8,30.12,SW,220,0.0,0.0,96,0.00,,,0.41,Wunderground v.1.13,2013-08-12 01:39:00,
2013-08-11 21:45:00,71.9,70.7,30.12,SW,220,0.0,0.0,96,0.00,,,0.41,Wunderground v.1.13,2013-08-12 01:45:00,
2013-08-11 21:50:00,71.8,70.6,30.12,SW,220,0.0,0.0,96,0.00,,,0.41,Wunderground v.1.13,2013-08-12 01:50:00,
2013-08-11 21:57:00,71.7,70.5,30.13,SW,220,0.0,0.0,96,0.00,,,0.41,Wunderground v.1.13,2013-08-12 01:57:00,
2013-08-11 22:03:00,71.6,70.4,30.13,SW,220,0.0,0.0,96,0.00,,,0.41,Wunderground v.1.13,2013-08-12 02:03:00,
2013-08-11 22:08:00,71.6,70.4,30.13,SW,220,0.0,0.0,96,0.00,,,0.41,Wunderground v.1.13,2013-08-12 02:08:00,
2013-08-11 22:14:00,71.5,70.3,30.13,SW,220,0.0,0.0,96,0.00,,,0.41,Wunderground v.1.13,2013-08-12 02:14:00,
2013-08-11 22:20:00,71.5,70.3,30.13,SW,220,0.0,0.0,96,0.00,,,0.41,Wunderground v.1.13,2013-08-12 02:20:00,
2013-08-11 22:25:00,71.4,70.2,30.14,SW,220,0.0,0.0,96,0.00,,,0.41,Wunderground v.1.13,2013-08-12 02:25:00,
2013-08-11 22:31:00,71.3,70.1,30.14,SW,220,0.0,0.0,96,0.00,,,0.41,Wunderground v.1.13,2013-08-12 02:31:00,
2013-08-11 22:36:00,71.3,70.1,30.14,SW,220,0.0,0.0,96,0.00,,,0.41,Wunderground v.1.13,2013-08-12 02:36:00,
2013-08-11 22:42:00,71.3,70.1,30.13,SW,220,0.0,0.0,96,0.00,,,0.41,Wunderground v.1.13,2013-08-12 02:42:00,
2013-08-11 22:48:00,71.2,70.3,30.13,SW,220,0.0,0.0,97,0.00,,,0.41,Wunderground v.1.13,2013-08-12 02:48:00,
2013-08-11 22:53:00,71.2,70.3,30.14,SW,220,0.0,0.0,97,0.00,,,0.41,Wunderground v.1.13,2013-08-12 02:53:00,
2013-08-11 22:59:00,71.1,70.2,30.14,SW,220,0.0,0.0,97,0.00,,,0.41,Wunderground v.1.13,2013-08-12 02:59:00,
2013-08-11 23:04:00,71.0,70.1,30.14,SW,220,0.0,0.0,97,0.00,,,0.41,Wunderground v.1.13,2013-08-12 03:04:00,
2013-08-11 23:09:00,70.9,69.7,30.14,SW,220,0.0,0.0,96,0.00,,,0.41,Wunderground v.1.13,2013-08-12 03:09:00,
2013-08-11 23:15:00,70.8,69.6,30.14,SW,220,0.0,0.0,96,0.00,,,0.41,Wunderground v.1.13,2013-08-12 03:15:00,
2013-08-11 23:21:00,70.7,69.5,30.14,SW,220,0.0,0.0,96,0.00,,,0.41,Wunderground v.1.13,2013-08-12 03:21:00,
2013-08-11 23:26:00,70.6,69.7,30.14,SW,220,0.0,0.0,97,0.00,,,0.41,Wunderground v.1.13,2013-08-12 03:26:00,
2013-08-11 23:32:00,70.5,69.6,30.14,SW,220,0.0,0.0,97,0.00,,,0.41,Wunderground v.1.13,2013-08-12 03:32:00,
2013-08-11 23:38:00,70.4,69.5,30.14,SW,220,0.0,0.0,97,0.00,,,0.41,Wunderground v.1.13,2013-08-12 03:38:00,
2013-08-11 23:43:00,70.3,69.4,30.14,SW,220,0.0,0.0,97,0.00,,,0.41,Wunderground v.1.13,2013-08-12 03:43:00,
2013-08-11 23:48:00,70.3,69.4,30.14,SW,220,0.0,0.0,97,0.00,,,0.41,Wunderground v.1.13,2013-08-12 03:48:00,
2013-08-11 23:54:00,70.2,69.3,30.14,SW,220,0.0,0.0,97,0.00,,,0.41,Wunderground v.1.13,2013-08-12 03:54:00,
2013-08-11 23:59:00,70.1,69.2,30.14,SW,220,0.0,0.0,97,0.00,,,0.41,Wunderground v.1.13,2013-08-12 03:59:00,